sensor_id;sensor_type;location;lat;lon;timestamp;temperature;humidity
5962;DHT22;3007;50.770;0.250;2023-05-25T00:01:45;12.20;99.90
5962;DHT22;3007;50.770;0.250;2023-05-25T00:04:13;12.20;99.90
5962;DHT22;3007;50.770;0.250;2023-05-25T00:06:41;12.20;99.90
5962;DHT22;3007;50.770;0.250;2023-05-25T00:09:09;12.20;99.90
5962;DHT22;3007;50.770;0.250;2023-05-25T00:11:37;12.20;99.90
5962;DHT22;3007;50.770;0.250;2023-05-25T00:14:04;12.20;99.90
5962;DHT22;3007;50.770;0.250;2023-05-25T00:16:32;12.10;99.90
5962;DHT22;3007;50.770;0.250;2023-05-25T00:19:03;12.10;99.90
5962;DHT22;3007;50.770;0.250;2023-05-25T00:21:30;12.10;99.90
5962;DHT22;3007;50.770;0.250;2023-05-25T00:23:58;12.00;99.90
5962;DHT22;3007;50.770;0.250;2023-05-25T00:26:25;12.00;99.90
5962;DHT22;3007;50.770;0.250;2023-05-25T00:28:52;12.00;99.90
5962;DHT22;3007;50.770;0.250;2023-05-25T00:31:19;11.90;99.90
5962;DHT22;3007;50.770;0.250;2023-05-25T00:33:47;11.90;99.90
5962;DHT22;3007;50.770;0.250;2023-05-25T00:36:15;11.90;99.90
5962;DHT22;3007;50.770;0.250;2023-05-25T00:38:41;11.90;99.90
5962;DHT22;3007;50.770;0.250;2023-05-25T00:41:08;11.80;99.90
5962;DHT22;3007;50.770;0.250;2023-05-25T00:43:35;11.80;99.90
5962;DHT22;3007;50.770;0.250;2023-05-25T00:46:02;11.80;99.90
5962;DHT22;3007;50.770;0.250;2023-05-25T00:48:29;11.80;99.90
5962;DHT22;3007;50.770;0.250;2023-05-25T00:50:58;11.70;99.90
5962;DHT22;3007;50.770;0.250;2023-05-25T00:53:26;11.70;99.90
5962;DHT22;3007;50.770;0.250;2023-05-25T00:55:58;11.70;99.90
5962;DHT22;3007;50.770;0.250;2023-05-25T00:58:30;11.60;99.90
5962;DHT22;3007;50.770;0.250;2023-05-25T01:00:59;11.60;99.90
5962;DHT22;3007;50.770;0.250;2023-05-25T01:03:30;11.60;99.90
5962;DHT22;3007;50.770;0.250;2023-05-25T01:06:02;11.60;99.90
5962;DHT22;3007;50.770;0.250;2023-05-25T01:08:32;11.50;99.90
5962;DHT22;3007;50.770;0.250;2023-05-25T01:10:59;11.50;99.90
5962;DHT22;3007;50.770;0.250;2023-05-25T01:13:28;11.50;99.90
5962;DHT22;3007;50.770;0.250;2023-05-25T01:15:57;11.50;99.90
5962;DHT22;3007;50.770;0.250;2023-05-25T01:18:24;11.50;99.90
5962;DHT22;3007;50.770;0.250;2023-05-25T01:20:58;11.50;99.90
5962;DHT22;3007;50.770;0.250;2023-05-25T01:23:31;11.40;99.90
5962;DHT22;3007;50.770;0.250;2023-05-25T01:26:00;11.40;99.90
5962;DHT22;3007;50.770;0.250;2023-05-25T01:28:32;11.40;99.90
5962;DHT22;3007;50.770;0.250;2023-05-25T01:31:02;11.30;99.90
5962;DHT22;3007;50.770;0.250;2023-05-25T01:33:30;11.30;99.90
5962;DHT22;3007;50.770;0.250;2023-05-25T01:35:59;11.30;99.90
5962;DHT22;3007;50.770;0.250;2023-05-25T01:38:26;11.30;99.90
5962;DHT22;3007;50.770;0.250;2023-05-25T01:40:53;11.20;99.90
5962;DHT22;3007;50.770;0.250;2023-05-25T01:43:22;11.20;99.90
5962;DHT22;3007;50.770;0.250;2023-05-25T01:45:50;11.20;99.90
5962;DHT22;3007;50.770;0.250;2023-05-25T01:48:23;11.20;99.90
5962;DHT22;3007;50.770;0.250;2023-05-25T01:50:55;11.20;99.90
5962;DHT22;3007;50.770;0.250;2023-05-25T01:53:28;11.20;99.90
5962;DHT22;3007;50.770;0.250;2023-05-25T01:55:59;11.20;99.90
5962;DHT22;3007;50.770;0.250;2023-05-25T01:58:31;11.20;99.90
5962;DHT22;3007;50.770;0.250;2023-05-25T02:01:00;11.20;99.90
5962;DHT22;3007;50.770;0.250;2023-05-25T02:03:28;11.20;99.90
5962;DHT22;3007;50.770;0.250;2023-05-25T02:05:54;11.20;99.90
5962;DHT22;3007;50.770;0.250;2023-05-25T02:08:23;11.10;99.90
5962;DHT22;3007;50.770;0.250;2023-05-25T02:10:50;11.20;99.90
5962;DHT22;3007;50.770;0.250;2023-05-25T02:13:17;11.10;99.90
5962;DHT22;3007;50.770;0.250;2023-05-25T02:15:44;11.10;99.90
5962;DHT22;3007;50.770;0.250;2023-05-25T02:18:11;11.10;99.90
5962;DHT22;3007;50.770;0.250;2023-05-25T02:20:42;11.10;99.90
5962;DHT22;3007;50.770;0.250;2023-05-25T02:23:09;11.10;99.90
5962;DHT22;3007;50.770;0.250;2023-05-25T02:25:37;11.10;99.90
5962;DHT22;3007;50.770;0.250;2023-05-25T02:28:04;11.10;99.90
5962;DHT22;3007;50.770;0.250;2023-05-25T02:30:31;11.10;99.90
5962;DHT22;3007;50.770;0.250;2023-05-25T02:32:58;11.10;99.90
5962;DHT22;3007;50.770;0.250;2023-05-25T02:35:26;11.00;99.90
5962;DHT22;3007;50.770;0.250;2023-05-25T02:37:53;11.00;99.90
5962;DHT22;3007;50.770;0.250;2023-05-25T02:40:20;11.00;99.90
5962;DHT22;3007;50.770;0.250;2023-05-25T02:42:48;11.10;99.90
5962;DHT22;3007;50.770;0.250;2023-05-25T02:45:15;11.10;99.90
5962;DHT22;3007;50.770;0.250;2023-05-25T02:47:42;11.00;99.90
5962;DHT22;3007;50.770;0.250;2023-05-25T02:50:10;11.00;99.90
5962;DHT22;3007;50.770;0.250;2023-05-25T02:52:37;11.00;99.90
5962;DHT22;3007;50.770;0.250;2023-05-25T02:55:05;11.00;99.90
5962;DHT22;3007;50.770;0.250;2023-05-25T02:57:34;11.00;99.90
5962;DHT22;3007;50.770;0.250;2023-05-25T03:00:04;10.90;99.90
5962;DHT22;3007;50.770;0.250;2023-05-25T03:02:32;11.00;99.90
5962;DHT22;3007;50.770;0.250;2023-05-25T03:05:00;11.00;99.90
5962;DHT22;3007;50.770;0.250;2023-05-25T03:07:26;11.00;99.90
5962;DHT22;3007;50.770;0.250;2023-05-25T03:09:53;11.00;99.90
5962;DHT22;3007;50.770;0.250;2023-05-25T03:12:20;10.90;99.90
5962;DHT22;3007;50.770;0.250;2023-05-25T03:14:47;10.90;99.90
5962;DHT22;3007;50.770;0.250;2023-05-25T03:17:15;10.90;99.90
5962;DHT22;3007;50.770;0.250;2023-05-25T03:19:42;10.90;99.90
5962;DHT22;3007;50.770;0.250;2023-05-25T03:22:09;10.90;99.90
5962;DHT22;3007;50.770;0.250;2023-05-25T03:24:36;10.90;99.90
5962;DHT22;3007;50.770;0.250;2023-05-25T03:27:06;10.90;99.90
5962;DHT22;3007;50.770;0.250;2023-05-25T03:29:33;10.90;99.90
5962;DHT22;3007;50.770;0.250;2023-05-25T03:32:00;10.90;99.90
5962;DHT22;3007;50.770;0.250;2023-05-25T03:34:29;10.80;99.90
5962;DHT22;3007;50.770;0.250;2023-05-25T03:36:59;10.80;99.90
5962;DHT22;3007;50.770;0.250;2023-05-25T03:39:26;10.80;99.90
5962;DHT22;3007;50.770;0.250;2023-05-25T03:41:52;10.80;99.90
5962;DHT22;3007;50.770;0.250;2023-05-25T03:44:20;10.80;99.90
5962;DHT22;3007;50.770;0.250;2023-05-25T03:46:47;10.70;99.90
5962;DHT22;3007;50.770;0.250;2023-05-25T03:49:14;10.70;99.90
5962;DHT22;3007;50.770;0.250;2023-05-25T03:51:42;10.70;99.90
5962;DHT22;3007;50.770;0.250;2023-05-25T03:54:09;10.70;99.90
5962;DHT22;3007;50.770;0.250;2023-05-25T03:56:36;10.70;99.90
5962;DHT22;3007;50.770;0.250;2023-05-25T03:59:03;10.70;99.90
5962;DHT22;3007;50.770;0.250;2023-05-25T04:01:30;10.70;99.90
5962;DHT22;3007;50.770;0.250;2023-05-25T04:03:57;10.70;99.90
5962;DHT22;3007;50.770;0.250;2023-05-25T04:06:24;10.70;99.90
5962;DHT22;3007;50.770;0.250;2023-05-25T04:08:52;10.70;99.90
5962;DHT22;3007;50.770;0.250;2023-05-25T04:11:19;10.80;99.90
5962;DHT22;3007;50.770;0.250;2023-05-25T04:13:47;10.80;99.90
5962;DHT22;3007;50.770;0.250;2023-05-25T04:16:14;10.90;99.90
5962;DHT22;3007;50.770;0.250;2023-05-25T04:18:41;10.90;99.90
5962;DHT22;3007;50.770;0.250;2023-05-25T04:21:08;10.90;99.90
5962;DHT22;3007;50.770;0.250;2023-05-25T04:23:35;11.00;99.90
5962;DHT22;3007;50.770;0.250;2023-05-25T04:26:03;11.10;99.90
5962;DHT22;3007;50.770;0.250;2023-05-25T04:28:31;11.20;99.90
5962;DHT22;3007;50.770;0.250;2023-05-25T04:30:58;11.50;99.90
5962;DHT22;3007;50.770;0.250;2023-05-25T04:33:24;11.80;99.90
5962;DHT22;3007;50.770;0.250;2023-05-25T04:35:53;12.10;99.90
5962;DHT22;3007;50.770;0.250;2023-05-25T04:38:23;12.50;99.90
5962;DHT22;3007;50.770;0.250;2023-05-25T04:40:50;12.90;99.90
5962;DHT22;3007;50.770;0.250;2023-05-25T04:43:19;13.30;99.90
5962;DHT22;3007;50.770;0.250;2023-05-25T04:45:46;13.60;99.90
5962;DHT22;3007;50.770;0.250;2023-05-25T04:48:15;13.90;99.90
5962;DHT22;3007;50.770;0.250;2023-05-25T04:50:42;14.30;99.90
5962;DHT22;3007;50.770;0.250;2023-05-25T04:53:09;14.70;99.90
5962;DHT22;3007;50.770;0.250;2023-05-25T04:55:36;15.00;99.90
5962;DHT22;3007;50.770;0.250;2023-05-25T04:58:04;15.30;99.90
5962;DHT22;3007;50.770;0.250;2023-05-25T05:00:33;15.60;99.90
5962;DHT22;3007;50.770;0.250;2023-05-25T05:03:00;15.90;99.90
5962;DHT22;3007;50.770;0.250;2023-05-25T05:05:27;16.20;99.90
5962;DHT22;3007;50.770;0.250;2023-05-25T05:07:54;16.50;99.90
5962;DHT22;3007;50.770;0.250;2023-05-25T05:10:22;16.80;99.90
5962;DHT22;3007;50.770;0.250;2023-05-25T05:12:49;16.90;99.90
5962;DHT22;3007;50.770;0.250;2023-05-25T05:15:16;17.10;99.90
5962;DHT22;3007;50.770;0.250;2023-05-25T05:17:44;17.40;99.90
5962;DHT22;3007;50.770;0.250;2023-05-25T05:20:12;17.80;99.90
5962;DHT22;3007;50.770;0.250;2023-05-25T05:22:39;18.10;94.30
5962;DHT22;3007;50.770;0.250;2023-05-25T05:25:06;18.40;80.60
5962;DHT22;3007;50.770;0.250;2023-05-25T05:27:33;18.50;62.80
5962;DHT22;3007;50.770;0.250;2023-05-25T05:30:00;18.80;7.70
5962;DHT22;3007;50.770;0.250;2023-05-25T05:32:27;19.00;11.30
5962;DHT22;3007;50.770;0.250;2023-05-25T05:34:55;19.20;1.00
5962;DHT22;3007;50.770;0.250;2023-05-25T05:37:22;19.40;1.00
5962;DHT22;3007;50.770;0.250;2023-05-25T05:39:49;19.70;1.00
5962;DHT22;3007;50.770;0.250;2023-05-25T05:42:17;19.80;1.00
5962;DHT22;3007;50.770;0.250;2023-05-25T05:44:44;19.90;1.00
5962;DHT22;3007;50.770;0.250;2023-05-25T05:47:11;19.80;1.00
5962;DHT22;3007;50.770;0.250;2023-05-25T05:49:38;19.90;1.00
5962;DHT22;3007;50.770;0.250;2023-05-25T05:52:07;20.20;1.00
5962;DHT22;3007;50.770;0.250;2023-05-25T05:54:34;20.10;1.00
5962;DHT22;3007;50.770;0.250;2023-05-25T05:57:02;20.20;1.00
5962;DHT22;3007;50.770;0.250;2023-05-25T05:59:29;20.50;1.00
5962;DHT22;3007;50.770;0.250;2023-05-25T06:01:55;20.60;1.00
5962;DHT22;3007;50.770;0.250;2023-05-25T06:04:22;20.70;1.00
5962;DHT22;3007;50.770;0.250;2023-05-25T06:06:53;20.80;1.00
5962;DHT22;3007;50.770;0.250;2023-05-25T06:09:21;21.00;1.00
5962;DHT22;3007;50.770;0.250;2023-05-25T06:11:48;21.10;1.00
5962;DHT22;3007;50.770;0.250;2023-05-25T06:14:15;21.20;1.00
5962;DHT22;3007;50.770;0.250;2023-05-25T06:16:41;21.30;1.00
5962;DHT22;3007;50.770;0.250;2023-05-25T06:19:09;21.40;1.00
5962;DHT22;3007;50.770;0.250;2023-05-25T06:21:36;21.50;1.00
5962;DHT22;3007;50.770;0.250;2023-05-25T06:24:03;21.50;1.00
5962;DHT22;3007;50.770;0.250;2023-05-25T06:26:32;21.60;1.00
5962;DHT22;3007;50.770;0.250;2023-05-25T06:28:58;21.60;1.00
5962;DHT22;3007;50.770;0.250;2023-05-25T06:31:26;21.80;1.00
5962;DHT22;3007;50.770;0.250;2023-05-25T06:33:53;21.80;1.00
5962;DHT22;3007;50.770;0.250;2023-05-25T06:36:20;21.70;99.90
5962;DHT22;3007;50.770;0.250;2023-05-25T06:38:47;21.50;1.00
5962;DHT22;3007;50.770;0.250;2023-05-25T06:41:14;21.70;1.00
5962;DHT22;3007;50.770;0.250;2023-05-25T06:43:42;21.90;1.00
5962;DHT22;3007;50.770;0.250;2023-05-25T06:46:10;22.00;1.00
5962;DHT22;3007;50.770;0.250;2023-05-25T06:48:42;21.70;1.00
5962;DHT22;3007;50.770;0.250;2023-05-25T06:51:09;21.90;1.00
5962;DHT22;3007;50.770;0.250;2023-05-25T06:53:36;21.90;99.90
5962;DHT22;3007;50.770;0.250;2023-05-25T06:56:04;22.00;99.90
5962;DHT22;3007;50.770;0.250;2023-05-25T06:58:31;22.10;99.90
5962;DHT22;3007;50.770;0.250;2023-05-25T07:00:59;22.30;99.90
5962;DHT22;3007;50.770;0.250;2023-05-25T07:03:26;22.40;99.90
5962;DHT22;3007;50.770;0.250;2023-05-25T07:05:53;22.30;99.90
5962;DHT22;3007;50.770;0.250;2023-05-25T07:08:20;21.80;99.90
5962;DHT22;3007;50.770;0.250;2023-05-25T07:10:47;21.40;99.90
5962;DHT22;3007;50.770;0.250;2023-05-25T07:13:14;21.10;99.90
5962;DHT22;3007;50.770;0.250;2023-05-25T07:15:41;20.70;99.90
5962;DHT22;3007;50.770;0.250;2023-05-25T07:18:09;20.30;99.90
5962;DHT22;3007;50.770;0.250;2023-05-25T07:20:37;20.30;99.90
5962;DHT22;3007;50.770;0.250;2023-05-25T07:23:06;20.40;99.90
5962;DHT22;3007;50.770;0.250;2023-05-25T07:25:33;20.70;99.90
5962;DHT22;3007;50.770;0.250;2023-05-25T07:28:00;20.70;99.90
5962;DHT22;3007;50.770;0.250;2023-05-25T07:30:27;21.00;99.90
5962;DHT22;3007;50.770;0.250;2023-05-25T07:32:54;21.40;99.90
5962;DHT22;3007;50.770;0.250;2023-05-25T07:35:23;21.80;1.00
5962;DHT22;3007;50.770;0.250;2023-05-25T07:37:55;21.90;1.00
5962;DHT22;3007;50.770;0.250;2023-05-25T07:40:22;22.00;1.00
5962;DHT22;3007;50.770;0.250;2023-05-25T07:42:49;22.30;1.00
5962;DHT22;3007;50.770;0.250;2023-05-25T07:45:16;22.60;1.00
5962;DHT22;3007;50.770;0.250;2023-05-25T07:47:43;22.80;1.00
5962;DHT22;3007;50.770;0.250;2023-05-25T07:50:10;22.60;99.90
5962;DHT22;3007;50.770;0.250;2023-05-25T07:52:38;22.70;99.90
5962;DHT22;3007;50.770;0.250;2023-05-25T07:55:06;22.90;1.00
5962;DHT22;3007;50.770;0.250;2023-05-25T07:57:33;22.80;1.00
5962;DHT22;3007;50.770;0.250;2023-05-25T08:00:00;22.70;1.00
5962;DHT22;3007;50.770;0.250;2023-05-25T08:02:29;22.80;1.00
5962;DHT22;3007;50.770;0.250;2023-05-25T08:04:56;23.00;1.00
5962;DHT22;3007;50.770;0.250;2023-05-25T08:07:24;23.10;1.00
5962;DHT22;3007;50.770;0.250;2023-05-25T08:09:52;23.10;1.00
5962;DHT22;3007;50.770;0.250;2023-05-25T08:12:19;22.80;99.90
5962;DHT22;3007;50.770;0.250;2023-05-25T08:14:46;22.30;99.90
5962;DHT22;3007;50.770;0.250;2023-05-25T08:17:13;21.60;99.90
5962;DHT22;3007;50.770;0.250;2023-05-25T08:19:40;21.00;99.90
5962;DHT22;3007;50.770;0.250;2023-05-25T08:22:06;20.70;99.90
5962;DHT22;3007;50.770;0.250;2023-05-25T08:24:33;20.40;99.90
5962;DHT22;3007;50.770;0.250;2023-05-25T08:27:02;20.10;99.90
5962;DHT22;3007;50.770;0.250;2023-05-25T08:29:29;19.80;99.90
5962;DHT22;3007;50.770;0.250;2023-05-25T08:31:55;19.80;99.90
5962;DHT22;3007;50.770;0.250;2023-05-25T08:34:22;19.90;99.90
5962;DHT22;3007;50.770;0.250;2023-05-25T08:36:49;20.10;99.90
5962;DHT22;3007;50.770;0.250;2023-05-25T08:39:16;20.40;1.00
5962;DHT22;3007;50.770;0.250;2023-05-25T08:41:44;20.40;1.00
5962;DHT22;3007;50.770;0.250;2023-05-25T08:44:12;20.20;99.90
5962;DHT22;3007;50.770;0.250;2023-05-25T08:46:40;20.30;99.90
5962;DHT22;3007;50.770;0.250;2023-05-25T08:49:09;20.30;99.90
5962;DHT22;3007;50.770;0.250;2023-05-25T08:51:36;20.00;99.90
5962;DHT22;3007;50.770;0.250;2023-05-25T08:54:08;20.00;99.90
5962;DHT22;3007;50.770;0.250;2023-05-25T08:56:40;20.20;99.90
5962;DHT22;3007;50.770;0.250;2023-05-25T08:59:15;20.80;99.90
5962;DHT22;3007;50.770;0.250;2023-05-25T09:01:45;21.10;99.90
5962;DHT22;3007;50.770;0.250;2023-05-25T09:04:13;21.20;99.90
5962;DHT22;3007;50.770;0.250;2023-05-25T09:06:42;21.00;99.90
5962;DHT22;3007;50.770;0.250;2023-05-25T09:09:10;20.90;99.90
5962;DHT22;3007;50.770;0.250;2023-05-25T09:11:38;20.90;99.90
5962;DHT22;3007;50.770;0.250;2023-05-25T09:14:06;20.70;99.90
5962;DHT22;3007;50.770;0.250;2023-05-25T09:16:36;20.40;99.90
5962;DHT22;3007;50.770;0.250;2023-05-25T09:19:03;20.50;99.90
5962;DHT22;3007;50.770;0.250;2023-05-25T09:21:30;20.40;99.90
5962;DHT22;3007;50.770;0.250;2023-05-25T09:23:59;20.30;99.90
5962;DHT22;3007;50.770;0.250;2023-05-25T09:26:26;20.10;99.90
5962;DHT22;3007;50.770;0.250;2023-05-25T09:28:53;20.10;99.90
5962;DHT22;3007;50.770;0.250;2023-05-25T09:31:22;19.90;99.90
5962;DHT22;3007;50.770;0.250;2023-05-25T09:33:51;19.70;99.90
5962;DHT22;3007;50.770;0.250;2023-05-25T09:36:24;19.70;99.90
5962;DHT22;3007;50.770;0.250;2023-05-25T09:38:52;19.70;99.90
5962;DHT22;3007;50.770;0.250;2023-05-25T09:41:19;19.60;1.00
5962;DHT22;3007;50.770;0.250;2023-05-25T09:43:46;19.80;1.00
5962;DHT22;3007;50.770;0.250;2023-05-25T09:46:13;19.80;1.00
5962;DHT22;3007;50.770;0.250;2023-05-25T09:48:40;19.80;1.00
5962;DHT22;3007;50.770;0.250;2023-05-25T09:51:09;19.70;1.00
5962;DHT22;3007;50.770;0.250;2023-05-25T09:53:37;19.50;1.00
5962;DHT22;3007;50.770;0.250;2023-05-25T09:56:04;19.40;1.00
5962;DHT22;3007;50.770;0.250;2023-05-25T09:58:31;19.30;1.00
5962;DHT22;3007;50.770;0.250;2023-05-25T10:00:59;19.10;1.00
5962;DHT22;3007;50.770;0.250;2023-05-25T10:03:26;19.10;99.90
5962;DHT22;3007;50.770;0.250;2023-05-25T10:05:55;19.00;99.90
5962;DHT22;3007;50.770;0.250;2023-05-25T10:08:23;18.90;99.90
5962;DHT22;3007;50.770;0.250;2023-05-25T10:10:51;18.90;1.00
5962;DHT22;3007;50.770;0.250;2023-05-25T10:13:20;19.00;1.00
5962;DHT22;3007;50.770;0.250;2023-05-25T10:15:51;19.10;1.00
5962;DHT22;3007;50.770;0.250;2023-05-25T10:18:23;19.10;1.00
5962;DHT22;3007;50.770;0.250;2023-05-25T10:21:02;19.10;1.00
5962;DHT22;3007;50.770;0.250;2023-05-25T10:23:35;19.10;1.00
5962;DHT22;3007;50.770;0.250;2023-05-25T10:26:05;19.10;1.00
5962;DHT22;3007;50.770;0.250;2023-05-25T10:28:35;19.00;1.00
5962;DHT22;3007;50.770;0.250;2023-05-25T10:31:04;18.90;1.00
5962;DHT22;3007;50.770;0.250;2023-05-25T10:33:31;18.90;1.00
5962;DHT22;3007;50.770;0.250;2023-05-25T10:35:59;18.90;1.00
5962;DHT22;3007;50.770;0.250;2023-05-25T10:38:27;18.90;1.00
5962;DHT22;3007;50.770;0.250;2023-05-25T10:40:58;18.90;1.00
5962;DHT22;3007;50.770;0.250;2023-05-25T10:43:25;18.70;1.00
5962;DHT22;3007;50.770;0.250;2023-05-25T10:45:53;18.60;1.00
5962;DHT22;3007;50.770;0.250;2023-05-25T10:48:20;18.50;1.00
5962;DHT22;3007;50.770;0.250;2023-05-25T10:50:49;18.60;1.00
5962;DHT22;3007;50.770;0.250;2023-05-25T10:53:17;18.70;1.00
5962;DHT22;3007;50.770;0.250;2023-05-25T10:55:49;18.70;1.00
5962;DHT22;3007;50.770;0.250;2023-05-25T10:58:28;18.60;1.00
5962;DHT22;3007;50.770;0.250;2023-05-25T11:01:00;18.60;1.00
5962;DHT22;3007;50.770;0.250;2023-05-25T11:03:49;18.70;1.00
5962;DHT22;3007;50.770;0.250;2023-05-25T11:06:17;18.70;1.00
5962;DHT22;3007;50.770;0.250;2023-05-25T11:08:50;18.70;1.00
5962;DHT22;3007;50.770;0.250;2023-05-25T11:11:17;18.70;1.00
5962;DHT22;3007;50.770;0.250;2023-05-25T11:13:46;18.90;1.00
5962;DHT22;3007;50.770;0.250;2023-05-25T11:16:20;18.90;1.00
5962;DHT22;3007;50.770;0.250;2023-05-25T11:18:51;18.70;1.00
5962;DHT22;3007;50.770;0.250;2023-05-25T11:21:40;18.70;1.00
5962;DHT22;3007;50.770;0.250;2023-05-25T11:24:17;18.60;1.00
5962;DHT22;3007;50.770;0.250;2023-05-25T11:26:54;18.60;1.00
5962;DHT22;3007;50.770;0.250;2023-05-25T11:29:23;18.80;1.00
5962;DHT22;3007;50.770;0.250;2023-05-25T11:31:52;18.60;1.00
5962;DHT22;3007;50.770;0.250;2023-05-25T11:34:21;18.60;1.00
5962;DHT22;3007;50.770;0.250;2023-05-25T11:36:53;18.40;1.00
5962;DHT22;3007;50.770;0.250;2023-05-25T11:39:21;18.60;1.00
5962;DHT22;3007;50.770;0.250;2023-05-25T11:41:51;18.60;1.00
5962;DHT22;3007;50.770;0.250;2023-05-25T11:44:31;18.50;1.00
5962;DHT22;3007;50.770;0.250;2023-05-25T11:47:01;18.40;1.00
5962;DHT22;3007;50.770;0.250;2023-05-25T11:49:30;18.40;1.00
5962;DHT22;3007;50.770;0.250;2023-05-25T11:51:57;18.30;1.00
5962;DHT22;3007;50.770;0.250;2023-05-25T11:54:25;18.20;1.00
5962;DHT22;3007;50.770;0.250;2023-05-25T11:56:53;18.10;1.00
5962;DHT22;3007;50.770;0.250;2023-05-25T11:59:23;18.00;1.00
5962;DHT22;3007;50.770;0.250;2023-05-25T12:01:59;18.10;1.00
5962;DHT22;3007;50.770;0.250;2023-05-25T12:04:26;18.20;1.00
5962;DHT22;3007;50.770;0.250;2023-05-25T12:07:00;18.10;1.00
5962;DHT22;3007;50.770;0.250;2023-05-25T12:09:28;18.10;1.00
5962;DHT22;3007;50.770;0.250;2023-05-25T12:11:55;18.10;1.00
5962;DHT22;3007;50.770;0.250;2023-05-25T12:14:22;18.30;1.00
5962;DHT22;3007;50.770;0.250;2023-05-25T12:16:50;18.40;1.00
5962;DHT22;3007;50.770;0.250;2023-05-25T12:19:19;18.50;1.00
5962;DHT22;3007;50.770;0.250;2023-05-25T12:21:47;18.50;1.00
5962;DHT22;3007;50.770;0.250;2023-05-25T12:24:17;18.50;1.00
5962;DHT22;3007;50.770;0.250;2023-05-25T12:26:47;18.60;1.00
5962;DHT22;3007;50.770;0.250;2023-05-25T12:29:15;18.90;1.00
5962;DHT22;3007;50.770;0.250;2023-05-25T12:31:42;19.10;1.00
5962;DHT22;3007;50.770;0.250;2023-05-25T12:34:10;19.10;1.00
5962;DHT22;3007;50.770;0.250;2023-05-25T12:36:44;19.10;1.00
5962;DHT22;3007;50.770;0.250;2023-05-25T12:39:13;19.20;1.00
5962;DHT22;3007;50.770;0.250;2023-05-25T12:41:42;19.30;1.00
5962;DHT22;3007;50.770;0.250;2023-05-25T12:44:25;19.30;1.00
5962;DHT22;3007;50.770;0.250;2023-05-25T12:46:53;19.30;1.00
5962;DHT22;3007;50.770;0.250;2023-05-25T12:49:25;19.30;1.00
5962;DHT22;3007;50.770;0.250;2023-05-25T12:51:53;19.30;1.00
5962;DHT22;3007;50.770;0.250;2023-05-25T12:54:41;19.30;1.00
5962;DHT22;3007;50.770;0.250;2023-05-25T12:57:11;19.40;1.00
5962;DHT22;3007;50.770;0.250;2023-05-25T12:59:39;19.40;1.00
5962;DHT22;3007;50.770;0.250;2023-05-25T13:02:06;19.20;1.00
5962;DHT22;3007;50.770;0.250;2023-05-25T13:04:34;19.20;1.00
5962;DHT22;3007;50.770;0.250;2023-05-25T13:07:03;19.10;1.00
5962;DHT22;3007;50.770;0.250;2023-05-25T13:09:30;19.00;1.00
5962;DHT22;3007;50.770;0.250;2023-05-25T13:11:58;19.10;1.00
5962;DHT22;3007;50.770;0.250;2023-05-25T13:14:26;19.10;1.00
5962;DHT22;3007;50.770;0.250;2023-05-25T13:16:53;19.10;1.00
5962;DHT22;3007;50.770;0.250;2023-05-25T13:19:22;19.00;1.00
5962;DHT22;3007;50.770;0.250;2023-05-25T13:21:49;18.90;1.00
5962;DHT22;3007;50.770;0.250;2023-05-25T13:24:18;19.00;1.00
5962;DHT22;3007;50.770;0.250;2023-05-25T13:26:45;19.10;1.00
5962;DHT22;3007;50.770;0.250;2023-05-25T13:29:12;19.10;1.00
5962;DHT22;3007;50.770;0.250;2023-05-25T13:31:39;19.10;99.90
5962;DHT22;3007;50.770;0.250;2023-05-25T13:34:06;19.00;99.90
5962;DHT22;3007;50.770;0.250;2023-05-25T13:36:33;18.80;99.90
5962;DHT22;3007;50.770;0.250;2023-05-25T13:39:00;18.90;1.00
5962;DHT22;3007;50.770;0.250;2023-05-25T13:41:31;18.90;1.00
5962;DHT22;3007;50.770;0.250;2023-05-25T13:43:57;19.00;1.00
5962;DHT22;3007;50.770;0.250;2023-05-25T13:46:24;18.90;1.00
5962;DHT22;3007;50.770;0.250;2023-05-25T13:48:51;18.60;1.00
5962;DHT22;3007;50.770;0.250;2023-05-25T13:51:18;18.40;1.00
5962;DHT22;3007;50.770;0.250;2023-05-25T13:53:45;18.30;1.00
5962;DHT22;3007;50.770;0.250;2023-05-25T13:56:13;18.30;1.00
5962;DHT22;3007;50.770;0.250;2023-05-25T13:58:42;18.30;1.00
5962;DHT22;3007;50.770;0.250;2023-05-25T14:01:09;18.10;1.00
5962;DHT22;3007;50.770;0.250;2023-05-25T14:03:36;18.10;1.00
5962;DHT22;3007;50.770;0.250;2023-05-25T14:06:04;18.30;1.00
5962;DHT22;3007;50.770;0.250;2023-05-25T14:08:31;18.30;1.00
5962;DHT22;3007;50.770;0.250;2023-05-25T14:10:58;18.30;1.00
5962;DHT22;3007;50.770;0.250;2023-05-25T14:13:25;18.30;1.00
5962;DHT22;3007;50.770;0.250;2023-05-25T14:15:53;18.40;1.00
5962;DHT22;3007;50.770;0.250;2023-05-25T14:18:20;18.40;1.00
5962;DHT22;3007;50.770;0.250;2023-05-25T14:20:47;18.60;1.00
5962;DHT22;3007;50.770;0.250;2023-05-25T14:23:14;18.70;1.00
5962;DHT22;3007;50.770;0.250;2023-05-25T14:25:43;18.80;1.00
5962;DHT22;3007;50.770;0.250;2023-05-25T14:28:10;18.60;1.00
5962;DHT22;3007;50.770;0.250;2023-05-25T14:30:37;18.40;1.00
5962;DHT22;3007;50.770;0.250;2023-05-25T14:33:05;18.40;1.00
5962;DHT22;3007;50.770;0.250;2023-05-25T14:35:32;18.40;1.00
5962;DHT22;3007;50.770;0.250;2023-05-25T14:37:59;18.40;1.00
5962;DHT22;3007;50.770;0.250;2023-05-25T14:40:26;18.30;1.00
5962;DHT22;3007;50.770;0.250;2023-05-25T14:42:53;18.20;1.00
5962;DHT22;3007;50.770;0.250;2023-05-25T14:45:20;18.20;1.00
5962;DHT22;3007;50.770;0.250;2023-05-25T14:47:47;18.30;1.00
5962;DHT22;3007;50.770;0.250;2023-05-25T14:50:16;18.40;1.00
5962;DHT22;3007;50.770;0.250;2023-05-25T14:52:42;18.60;1.00
5962;DHT22;3007;50.770;0.250;2023-05-25T14:55:10;18.70;1.00
5962;DHT22;3007;50.770;0.250;2023-05-25T14:57:37;18.60;1.00
5962;DHT22;3007;50.770;0.250;2023-05-25T15:00:05;18.50;1.00
5962;DHT22;3007;50.770;0.250;2023-05-25T15:02:32;18.50;1.00
5962;DHT22;3007;50.770;0.250;2023-05-25T15:04:59;18.40;1.00
5962;DHT22;3007;50.770;0.250;2023-05-25T15:07:27;18.40;1.00
5962;DHT22;3007;50.770;0.250;2023-05-25T15:09:54;18.30;1.00
5962;DHT22;3007;50.770;0.250;2023-05-25T15:12:21;18.20;1.00
5962;DHT22;3007;50.770;0.250;2023-05-25T15:14:48;18.00;1.00
5962;DHT22;3007;50.770;0.250;2023-05-25T15:17:14;18.00;1.00
5962;DHT22;3007;50.770;0.250;2023-05-25T15:19:41;17.90;1.00
5962;DHT22;3007;50.770;0.250;2023-05-25T15:22:08;17.90;1.00
5962;DHT22;3007;50.770;0.250;2023-05-25T15:24:36;17.70;1.00
5962;DHT22;3007;50.770;0.250;2023-05-25T15:27:04;17.60;1.00
5962;DHT22;3007;50.770;0.250;2023-05-25T15:29:31;17.60;1.00
5962;DHT22;3007;50.770;0.250;2023-05-25T15:31:57;17.60;1.00
5962;DHT22;3007;50.770;0.250;2023-05-25T15:34:24;17.70;1.00
5962;DHT22;3007;50.770;0.250;2023-05-25T15:36:51;17.70;1.00
5962;DHT22;3007;50.770;0.250;2023-05-25T15:39:18;17.70;1.00
5962;DHT22;3007;50.770;0.250;2023-05-25T15:41:46;17.80;1.00
5962;DHT22;3007;50.770;0.250;2023-05-25T15:44:13;17.70;1.00
5962;DHT22;3007;50.770;0.250;2023-05-25T15:46:40;17.60;1.00
5962;DHT22;3007;50.770;0.250;2023-05-25T15:49:07;17.60;1.00
5962;DHT22;3007;50.770;0.250;2023-05-25T15:51:37;17.60;1.00
5962;DHT22;3007;50.770;0.250;2023-05-25T15:54:06;17.70;1.00
5962;DHT22;3007;50.770;0.250;2023-05-25T15:56:33;17.70;1.00
5962;DHT22;3007;50.770;0.250;2023-05-25T15:59:01;17.60;1.00
5962;DHT22;3007;50.770;0.250;2023-05-25T16:01:28;17.60;1.00
5962;DHT22;3007;50.770;0.250;2023-05-25T16:03:56;17.70;1.00
5962;DHT22;3007;50.770;0.250;2023-05-25T16:06:23;17.70;1.00
5962;DHT22;3007;50.770;0.250;2023-05-25T16:08:50;17.60;1.00
5962;DHT22;3007;50.770;0.250;2023-05-25T16:11:17;17.60;1.00
5962;DHT22;3007;50.770;0.250;2023-05-25T16:13:44;17.60;1.00
5962;DHT22;3007;50.770;0.250;2023-05-25T16:16:12;17.60;1.00